sensor_id;sensor_type;location;lat;lon;timestamp;P1;durP1;ratioP1;P2;durP2;ratioP2
66327;SDS011;53133;52.862;6.602;2022-07-29T00:01:48;4.25;;;2.15;;
66327;SDS011;53133;52.862;6.602;2022-07-29T00:04:14;4.55;;;2.00;;
66327;SDS011;53133;52.862;6.602;2022-07-29T00:06:40;4.30;;;1.98;;
66327;SDS011;53133;52.862;6.602;2022-07-29T00:09:06;4.93;;;2.00;;
66327;SDS011;53133;52.862;6.602;2022-07-29T00:11:32;2.75;;;2.05;;
66327;SDS011;53133;52.862;6.602;2022-07-29T00:13:57;3.45;;;1.90;;
66327;SDS011;53133;52.862;6.602;2022-07-29T00:16:23;3.95;;;2.30;;
66327;SDS011;53133;52.862;6.602;2022-07-29T00:18:48;4.25;;;2.03;;
66327;SDS011;53133;52.862;6.602;2022-07-29T00:21:14;5.13;;;2.35;;
66327;SDS011;53133;52.862;6.602;2022-07-29T00:23:40;4.10;;;2.42;;
66327;SDS011;53133;52.862;6.602;2022-07-29T00:26:05;5.32;;;2.40;;
66327;SDS011;53133;52.862;6.602;2022-07-29T00:28:31;3.90;;;2.28;;
66327;SDS011;53133;52.862;6.602;2022-07-29T00:30:57;4.60;;;2.13;;
66327;SDS011;53133;52.862;6.602;2022-07-29T00:33:22;3.85;;;2.00;;
66327;SDS011;53133;52.862;6.602;2022-07-29T00:35:48;3.65;;;2.30;;
66327;SDS011;53133;52.862;6.602;2022-07-29T00:38:15;3.67;;;2.25;;
66327;SDS011;53133;52.862;6.602;2022-07-29T00:40:42;5.68;;;2.42;;
66327;SDS011;53133;52.862;6.602;2022-07-29T00:43:09;4.40;;;2.20;;
66327;SDS011;53133;52.862;6.602;2022-07-29T00:45:35;4.30;;;2.85;;
66327;SDS011;53133;52.862;6.602;2022-07-29T00:48:02;4.47;;;2.50;;
66327;SDS011;53133;52.862;6.602;2022-07-29T00:50:29;2.78;;;2.15;;
66327;SDS011;53133;52.862;6.602;2022-07-29T00:52:56;3.53;;;2.30;;
66327;SDS011;53133;52.862;6.602;2022-07-29T00:55:21;4.93;;;2.53;;
66327;SDS011;53133;52.862;6.602;2022-07-29T00:57:47;4.28;;;2.40;;
66327;SDS011;53133;52.862;6.602;2022-07-29T01:00:15;5.05;;;2.55;;
66327;SDS011;53133;52.862;6.602;2022-07-29T01:02:44;6.55;;;2.45;;
66327;SDS011;53133;52.862;6.602;2022-07-29T01:05:13;3.05;;;2.40;;
66327;SDS011;53133;52.862;6.602;2022-07-29T01:07:39;4.10;;;2.20;;
66327;SDS011;53133;52.862;6.602;2022-07-29T01:10:06;3.38;;;2.45;;
66327;SDS011;53133;52.862;6.602;2022-07-29T01:12:34;4.32;;;1.95;;
66327;SDS011;53133;52.862;6.602;2022-07-29T01:15:02;4.93;;;2.10;;
66327;SDS011;53133;52.862;6.602;2022-07-29T01:17:44;4.18;;;2.20;;
66327;SDS011;53133;52.862;6.602;2022-07-29T01:31:24;4.07;;;2.15;;
66327;SDS011;53133;52.862;6.602;2022-07-29T01:33:58;4.65;;;2.20;;
66327;SDS011;53133;52.862;6.602;2022-07-29T01:36:36;4.10;;;2.08;;
66327;SDS011;53133;52.862;6.602;2022-07-29T01:39:11;4.78;;;2.33;;
66327;SDS011;53133;52.862;6.602;2022-07-29T01:41:47;4.25;;;2.00;;
66327;SDS011;53133;52.862;6.602;2022-07-29T01:44:23;4.30;;;2.30;;
66327;SDS011;53133;52.862;6.602;2022-07-29T01:46:58;4.03;;;2.08;;
66327;SDS011;53133;52.862;6.602;2022-07-29T01:49:30;3.60;;;2.17;;
66327;SDS011;53133;52.862;6.602;2022-07-29T01:52:02;4.85;;;1.98;;
66327;SDS011;53133;52.862;6.602;2022-07-29T01:54:45;2.88;;;1.90;;
66327;SDS011;53133;52.862;6.602;2022-07-29T01:57:19;2.80;;;1.90;;
66327;SDS011;53133;52.862;6.602;2022-07-29T01:59:50;3.72;;;2.08;;
66327;SDS011;53133;52.862;6.602;2022-07-29T02:02:17;3.75;;;1.70;;
66327;SDS011;53133;52.862;6.602;2022-07-29T02:04:44;3.80;;;1.77;;
66327;SDS011;53133;52.862;6.602;2022-07-29T02:07:13;4.85;;;2.00;;
66327;SDS011;53133;52.862;6.602;2022-07-29T02:09:43;4.95;;;1.92;;
66327;SDS011;53133;52.862;6.602;2022-07-29T02:12:10;4.35;;;1.70;;
66327;SDS011;53133;52.862;6.602;2022-07-29T02:14:39;4.10;;;1.88;;
66327;SDS011;53133;52.862;6.602;2022-07-29T02:17:09;4.72;;;2.03;;
66327;SDS011;53133;52.862;6.602;2022-07-29T02:19:37;2.83;;;1.85;;
66327;SDS011;53133;52.862;6.602;2022-07-29T02:22:03;4.03;;;1.95;;
66327;SDS011;53133;52.862;6.602;2022-07-29T02:24:31;4.00;;;1.85;;
66327;SDS011;53133;52.862;6.602;2022-07-29T02:26:57;4.78;;;2.25;;
66327;SDS011;53133;52.862;6.602;2022-07-29T02:29:26;2.42;;;2.13;;
66327;SDS011;53133;52.862;6.602;2022-07-29T02:31:53;4.47;;;1.90;;
66327;SDS011;53133;52.862;6.602;2022-07-29T02:34:20;3.90;;;1.70;;
66327;SDS011;53133;52.862;6.602;2022-07-29T02:36:48;3.90;;;2.08;;
66327;SDS011;53133;52.862;6.602;2022-07-29T02:39:15;3.65;;;2.15;;
66327;SDS011;53133;52.862;6.602;2022-07-29T02:41:55;3.40;;;1.95;;
66327;SDS011;53133;52.862;6.602;2022-07-29T02:44:26;2.88;;;2.05;;
66327;SDS011;53133;52.862;6.602;2022-07-29T02:55:13;3.88;;;2.08;;
66327;SDS011;53133;52.862;6.602;2022-07-29T02:57:44;2.80;;;1.83;;
66327;SDS011;53133;52.862;6.602;2022-07-29T03:00:14;5.28;;;1.90;;
66327;SDS011;53133;52.862;6.602;2022-07-29T03:02:42;3.20;;;2.00;;
66327;SDS011;53133;52.862;6.602;2022-07-29T03:05:11;4.38;;;1.98;;
66327;SDS011;53133;52.862;6.602;2022-07-29T03:07:41;2.30;;;1.80;;
66327;SDS011;53133;52.862;6.602;2022-07-29T03:10:10;3.10;;;1.98;;
66327;SDS011;53133;52.862;6.602;2022-07-29T03:12:37;3.53;;;2.10;;
66327;SDS011;53133;52.862;6.602;2022-07-29T03:15:03;3.53;;;2.00;;
66327;SDS011;53133;52.862;6.602;2022-07-29T03:17:30;3.65;;;1.85;;
66327;SDS011;53133;52.862;6.602;2022-07-29T03:19:57;3.47;;;1.98;;
66327;SDS011;53133;52.862;6.602;2022-07-29T03:22:23;6.07;;;2.20;;
66327;SDS011;53133;52.862;6.602;2022-07-29T03:24:49;4.53;;;2.45;;
66327;SDS011;53133;52.862;6.602;2022-07-29T03:27:15;2.88;;;2.03;;
66327;SDS011;53133;52.862;6.602;2022-07-29T03:29:41;3.70;;;2.00;;
66327;SDS011;53133;52.862;6.602;2022-07-29T03:32:06;5.75;;;2.20;;
66327;SDS011;53133;52.862;6.602;2022-07-29T03:34:32;3.25;;;2.10;;
66327;SDS011;53133;52.862;6.602;2022-07-29T03:36:58;4.97;;;2.00;;
66327;SDS011;53133;52.862;6.602;2022-07-29T03:39:24;3.53;;;2.20;;
66327;SDS011;53133;52.862;6.602;2022-07-29T03:41:53;7.50;;;2.20;;
66327;SDS011;53133;52.862;6.602;2022-07-29T03:44:20;4.13;;;2.15;;
66327;SDS011;53133;52.862;6.602;2022-07-29T03:46:48;4.22;;;2.10;;
66327;SDS011;53133;52.862;6.602;2022-07-29T03:49:16;3.78;;;2.10;;
66327;SDS011;53133;52.862;6.602;2022-07-29T03:51:44;5.05;;;2.17;;
66327;SDS011;53133;52.862;6.602;2022-07-29T03:54:10;5.50;;;2.10;;
66327;SDS011;53133;52.862;6.602;2022-07-29T03:56:42;4.80;;;2.33;;
66327;SDS011;53133;52.862;6.602;2022-07-29T03:59:12;4.07;;;2.20;;
66327;SDS011;53133;52.862;6.602;2022-07-29T04:01:39;4.35;;;2.08;;
66327;SDS011;53133;52.862;6.602;2022-07-29T04:04:06;3.22;;;2.00;;
66327;SDS011;53133;52.862;6.602;2022-07-29T04:06:38;4.38;;;2.13;;
66327;SDS011;53133;52.862;6.602;2022-07-29T04:09:08;3.40;;;2.00;;
66327;SDS011;53133;52.862;6.602;2022-07-29T04:11:35;5.43;;;2.40;;
66327;SDS011;53133;52.862;6.602;2022-07-29T04:14:02;4.82;;;2.22;;
66327;SDS011;53133;52.862;6.602;2022-07-29T04:16:28;3.80;;;2.20;;
66327;SDS011;53133;52.862;6.602;2022-07-29T04:18:53;5.55;;;2.45;;
66327;SDS011;53133;52.862;6.602;2022-07-29T04:21:19;4.05;;;2.00;;
66327;SDS011;53133;52.862;6.602;2022-07-29T04:23:45;6.97;;;2.15;;
66327;SDS011;53133;52.862;6.602;2022-07-29T04:26:14;4.18;;;2.42;;
66327;SDS011;53133;52.862;6.602;2022-07-29T04:28:41;5.63;;;2.20;;
66327;SDS011;53133;52.862;6.602;2022-07-29T04:31:07;3.60;;;2.00;;
66327;SDS011;53133;52.862;6.602;2022-07-29T04:33:33;4.18;;;2.17;;
66327;SDS011;53133;52.862;6.602;2022-07-29T04:35:59;3.20;;;2.00;;
66327;SDS011;53133;52.862;6.602;2022-07-29T04:38:24;3.35;;;2.17;;
66327;SDS011;53133;52.862;6.602;2022-07-29T04:40:50;5.68;;;2.10;;
66327;SDS011;53133;52.862;6.602;2022-07-29T04:43:15;6.50;;;2.10;;
66327;SDS011;53133;52.862;6.602;2022-07-29T04:45:41;7.10;;;2.22;;
66327;SDS011;53133;52.862;6.602;2022-07-29T04:48:07;4.80;;;2.45;;
66327;SDS011;53133;52.862;6.602;2022-07-29T04:50:33;5.85;;;2.53;;
66327;SDS011;53133;52.862;6.602;2022-07-29T04:52:58;5.97;;;2.58;;
66327;SDS011;53133;52.862;6.602;2022-07-29T04:55:24;3.58;;;2.33;;
66327;SDS011;53133;52.862;6.602;2022-07-29T04:57:50;3.60;;;2.17;;
66327;SDS011;53133;52.862;6.602;2022-07-29T05:00:16;5.63;;;2.15;;
66327;SDS011;53133;52.862;6.602;2022-07-29T05:02:42;6.75;;;2.10;;
66327;SDS011;53133;52.862;6.602;2022-07-29T05:05:07;3.40;;;2.20;;
66327;SDS011;53133;52.862;6.602;2022-07-29T05:07:33;8.93;;;2.50;;
66327;SDS011;53133;52.862;6.602;2022-07-29T05:09:59;3.15;;;1.95;;
66327;SDS011;53133;52.862;6.602;2022-07-29T05:12:25;6.25;;;1.83;;
66327;SDS011;53133;52.862;6.602;2022-07-29T05:14:51;4.13;;;2.00;;
66327;SDS011;53133;52.862;6.602;2022-07-29T05:17:16;4.90;;;2.08;;
66327;SDS011;53133;52.862;6.602;2022-07-29T05:19:42;4.35;;;2.10;;
66327;SDS011;53133;52.862;6.602;2022-07-29T05:22:08;5.30;;;2.47;;
66327;SDS011;53133;52.862;6.602;2022-07-29T05:24:33;6.53;;;2.63;;
66327;SDS011;53133;52.862;6.602;2022-07-29T05:26:59;3.30;;;2.10;;
66327;SDS011;53133;52.862;6.602;2022-07-29T05:29:24;5.55;;;2.72;;
66327;SDS011;53133;52.862;6.602;2022-07-29T05:31:50;3.25;;;2.38;;
66327;SDS011;53133;52.862;6.602;2022-07-29T05:34:17;4.63;;;2.50;;
66327;SDS011;53133;52.862;6.602;2022-07-29T05:36:44;10.05;;;2.70;;
66327;SDS011;53133;52.862;6.602;2022-07-29T05:39:10;6.50;;;2.90;;
66327;SDS011;53133;52.862;6.602;2022-07-29T05:41:36;4.03;;;2.30;;
66327;SDS011;53133;52.862;6.602;2022-07-29T05:44:01;5.70;;;2.60;;
66327;SDS011;53133;52.862;6.602;2022-07-29T05:46:27;5.80;;;2.47;;
66327;SDS011;53133;52.862;6.602;2022-07-29T05:48:53;5.00;;;2.55;;
66327;SDS011;53133;52.862;6.602;2022-07-29T05:51:18;4.95;;;2.38;;
66327;SDS011;53133;52.862;6.602;2022-07-29T05:53:44;10.23;;;3.03;;
66327;SDS011;53133;52.862;6.602;2022-07-29T05:56:10;6.22;;;2.72;;
66327;SDS011;53133;52.862;6.602;2022-07-29T05:58:36;7.50;;;2.70;;
66327;SDS011;53133;52.862;6.602;2022-07-29T06:01:01;6.15;;;2.30;;
66327;SDS011;53133;52.862;6.602;2022-07-29T06:03:27;4.60;;;2.55;;
66327;SDS011;53133;52.862;6.602;2022-07-29T06:05:53;4.38;;;2.35;;
66327;SDS011;53133;52.862;6.602;2022-07-29T06:08:19;4.50;;;2.97;;
66327;SDS011;53133;52.862;6.602;2022-07-29T06:10:45;3.72;;;2.22;;
66327;SDS011;53133;52.862;6.602;2022-07-29T06:13:10;4.32;;;2.47;;
66327;SDS011;53133;52.862;6.602;2022-07-29T06:15:36;10.88;;;2.83;;
66327;SDS011;53133;52.862;6.602;2022-07-29T06:18:02;7.07;;;2.83;;
66327;SDS011;53133;52.862;6.602;2022-07-29T06:20:28;6.32;;;2.35;;
66327;SDS011;53133;52.862;6.602;2022-07-29T06:22:55;5.00;;;2.30;;
66327;SDS011;53133;52.862;6.602;2022-07-29T06:25:21;4.85;;;2.60;;
66327;SDS011;53133;52.862;6.602;2022-07-29T06:27:47;6.32;;;2.40;;
66327;SDS011;53133;52.862;6.602;2022-07-29T06:30:12;4.70;;;2.55;;
66327;SDS011;53133;52.862;6.602;2022-07-29T06:32:38;5.43;;;2.38;;
66327;SDS011;53133;52.862;6.602;2022-07-29T06:35:03;9.10;;;2.83;;
66327;SDS011;53133;52.862;6.602;2022-07-29T06:37:29;7.60;;;3.00;;
66327;SDS011;53133;52.862;6.602;2022-07-29T06:39:55;8.52;;;2.85;;
66327;SDS011;53133;52.862;6.602;2022-07-29T06:42:43;5.88;;;2.45;;
66327;SDS011;53133;52.862;6.602;2022-07-29T06:45:09;5.03;;;2.60;;
66327;SDS011;53133;52.862;6.602;2022-07-29T06:47:38;6.45;;;2.63;;
66327;SDS011;53133;52.862;6.602;2022-07-29T06:50:04;6.30;;;2.60;;
66327;SDS011;53133;52.862;6.602;2022-07-29T06:52:30;3.08;;;2.42;;
66327;SDS011;53133;52.862;6.602;2022-07-29T06:54:55;4.47;;;2.90;;
66327;SDS011;53133;52.862;6.602;2022-07-29T06:57:21;3.97;;;2.35;;
66327;SDS011;53133;52.862;6.602;2022-07-29T06:59:47;5.40;;;2.45;;
66327;SDS011;53133;52.862;6.602;2022-07-29T07:02:13;2.83;;;2.40;;
66327;SDS011;53133;52.862;6.602;2022-07-29T07:04:39;7.32;;;2.65;;
66327;SDS011;53133;52.862;6.602;2022-07-29T07:07:04;6.95;;;2.65;;
66327;SDS011;53133;52.862;6.602;2022-07-29T07:09:30;3.92;;;2.20;;
66327;SDS011;53133;52.862;6.602;2022-07-29T07:11:56;5.75;;;2.22;;
66327;SDS011;53133;52.862;6.602;2022-07-29T07:14:21;3.67;;;2.42;;
66327;SDS011;53133;52.862;6.602;2022-07-29T07:16:47;4.63;;;2.50;;
66327;SDS011;53133;52.862;6.602;2022-07-29T07:19:12;4.53;;;2.45;;
66327;SDS011;53133;52.862;6.602;2022-07-29T07:21:38;5.60;;;2.60;;
66327;SDS011;53133;52.862;6.602;2022-07-29T07:24:04;4.03;;;2.30;;
66327;SDS011;53133;52.862;6.602;2022-07-29T07:26:30;3.08;;;2.45;;
66327;SDS011;53133;52.862;6.602;2022-07-29T07:28:55;6.80;;;2.53;;
66327;SDS011;53133;52.862;6.602;2022-07-29T07:31:21;6.40;;;2.50;;
66327;SDS011;53133;52.862;6.602;2022-07-29T07:33:47;4.47;;;2.33;;
66327;SDS011;53133;52.862;6.602;2022-07-29T07:36:13;7.72;;;2.90;;
66327;SDS011;53133;52.862;6.602;2022-07-29T07:38:38;5.13;;;2.95;;
66327;SDS011;53133;52.862;6.602;2022-07-29T07:41:04;7.05;;;2.85;;
66327;SDS011;53133;52.862;6.602;2022-07-29T07:43:30;4.95;;;2.70;;
66327;SDS011;53133;52.862;6.602;2022-07-29T07:45:57;4.38;;;2.50;;
66327;SDS011;53133;52.862;6.602;2022-07-29T07:48:22;5.95;;;2.47;;
66327;SDS011;53133;52.862;6.602;2022-07-29T07:50:48;5.03;;;2.45;;
66327;SDS011;53133;52.862;6.602;2022-07-29T07:53:14;5.00;;;3.00;;
66327;SDS011;53133;52.862;6.602;2022-07-29T07:55:40;7.05;;;3.25;;
66327;SDS011;53133;52.862;6.602;2022-07-29T07:58:06;5.47;;;2.53;;
66327;SDS011;53133;52.862;6.602;2022-07-29T08:00:32;7.88;;;2.83;;
66327;SDS011;53133;52.862;6.602;2022-07-29T08:02:57;4.50;;;2.70;;
66327;SDS011;53133;52.862;6.602;2022-07-29T08:05:23;5.60;;;2.63;;
66327;SDS011;53133;52.862;6.602;2022-07-29T08:07:49;8.80;;;2.80;;
66327;SDS011;53133;52.862;6.602;2022-07-29T08:10:15;7.07;;;2.72;;
66327;SDS011;53133;52.862;6.602;2022-07-29T08:13:03;5.57;;;2.83;;
66327;SDS011;53133;52.862;6.602;2022-07-29T08:15:33;5.40;;;2.17;;
66327;SDS011;53133;52.862;6.602;2022-07-29T08:17:59;5.72;;;2.80;;
66327;SDS011;53133;52.862;6.602;2022-07-29T08:20:25;3.45;;;2.47;;
66327;SDS011;53133;52.862;6.602;2022-07-29T08:22:51;5.35;;;2.50;;
66327;SDS011;53133;52.862;6.602;2022-07-29T08:25:17;4.88;;;2.70;;
66327;SDS011;53133;52.862;6.602;2022-07-29T08:27:45;9.32;;;2.97;;
66327;SDS011;53133;52.862;6.602;2022-07-29T08:30:12;4.28;;;2.80;;
66327;SDS011;53133;52.862;6.602;2022-07-29T08:32:38;5.30;;;2.70;;
66327;SDS011;53133;52.862;6.602;2022-07-29T08:35:04;5.47;;;2.65;;
66327;SDS011;53133;52.862;6.602;2022-07-29T08:37:30;6.10;;;2.95;;
66327;SDS011;53133;52.862;6.602;2022-07-29T08:39:55;7.13;;;2.55;;
66327;SDS011;53133;52.862;6.602;2022-07-29T08:42:21;5.75;;;2.70;;
66327;SDS011;53133;52.862;6.602;2022-07-29T08:44:46;5.10;;;2.95;;
66327;SDS011;53133;52.862;6.602;2022-07-29T08:47:16;5.20;;;2.50;;
66327;SDS011;53133;52.862;6.602;2022-07-29T08:49:42;4.88;;;3.05;;
66327;SDS011;53133;52.862;6.602;2022-07-29T08:52:09;5.43;;;2.47;;
66327;SDS011;53133;52.862;6.602;2022-07-29T08:54:36;6.15;;;3.08;;
66327;SDS011;53133;52.862;6.602;2022-07-29T08:57:03;9.02;;;3.17;;
66327;SDS011;53133;52.862;6.602;2022-07-29T08:59:30;8.02;;;3.10;;
66327;SDS011;53133;52.862;6.602;2022-07-29T09:01:58;7.68;;;2.88;;
66327;SDS011;53133;52.862;6.602;2022-07-29T09:04:27;5.45;;;2.80;;
66327;SDS011;53133;52.862;6.602;2022-07-29T09:06:56;5.57;;;2.33;;
66327;SDS011;53133;52.862;6.602;2022-07-29T09:09:23;7.53;;;2.95;;
66327;SDS011;53133;52.862;6.602;2022-07-29T09:11:49;4.95;;;2.33;;
66327;SDS011;53133;52.862;6.602;2022-07-29T09:14:15;6.00;;;2.67;;
66327;SDS011;53133;52.862;6.602;2022-07-29T09:16:47;7.60;;;2.70;;
66327;SDS011;53133;52.862;6.602;2022-07-29T09:19:23;3.53;;;2.63;;
66327;SDS011;53133;52.862;6.602;2022-07-29T09:21:50;4.22;;;2.35;;
66327;SDS011;53133;52.862;6.602;2022-07-29T09:24:23;5.18;;;2.40;;
66327;SDS011;53133;52.862;6.602;2022-07-29T09:26:52;6.80;;;2.50;;
66327;SDS011;53133;52.862;6.602;2022-07-29T09:29:19;6.32;;;2.53;;
66327;SDS011;53133;52.862;6.602;2022-07-29T09:31:48;5.22;;;2.50;;
66327;SDS011;53133;52.862;6.602;2022-07-29T09:34:16;6.30;;;2.50;;
66327;SDS011;53133;52.862;6.602;2022-07-29T09:36:46;3.83;;;2.08;;
66327;SDS011;53133;52.862;6.602;2022-07-29T09:39:14;5.10;;;2.25;;
66327;SDS011;53133;52.862;6.602;2022-07-29T09:41:48;6.15;;;2.80;;
66327;SDS011;53133;52.862;6.602;2022-07-29T09:44:15;5.10;;;2.60;;
66327;SDS011;53133;52.862;6.602;2022-07-29T09:46:52;4.75;;;2.65;;
66327;SDS011;53133;52.862;6.602;2022-07-29T09:49:18;7.00;;;2.75;;
66327;SDS011;53133;52.862;6.602;2022-07-29T09:51:43;5.25;;;2.80;;
66327;SDS011;53133;52.862;6.602;2022-07-29T09:54:24;5.13;;;2.55;;
66327;SDS011;53133;52.862;6.602;2022-07-29T09:56:51;7.68;;;2.83;;
66327;SDS011;53133;52.862;6.602;2022-07-29T09:59:18;7.65;;;3.03;;
66327;SDS011;53133;52.862;6.602;2022-07-29T10:01:47;5.28;;;2.63;;
66327;SDS011;53133;52.862;6.602;2022-07-29T10:04:15;6.55;;;3.15;;
66327;SDS011;53133;52.862;6.602;2022-07-29T10:12:04;7.88;;;2.88;;
66327;SDS011;53133;52.862;6.602;2022-07-29T10:14:40;5.00;;;2.70;;
66327;SDS011;53133;52.862;6.602;2022-07-29T10:17:07;6.65;;;3.20;;
66327;SDS011;53133;52.862;6.602;2022-07-29T10:19:34;5.75;;;3.15;;
66327;SDS011;53133;52.862;6.602;2022-07-29T10:22:04;4.65;;;3.00;;
66327;SDS011;53133;52.862;6.602;2022-07-29T10:24:31;8.73;;;2.75;;
66327;SDS011;53133;52.862;6.602;2022-07-29T10:26:58;5.95;;;3.05;;
66327;SDS011;53133;52.862;6.602;2022-07-29T10:29:25;7.50;;;3.15;;
66327;SDS011;53133;52.862;6.602;2022-07-29T10:37:33;3.97;;;2.88;;
66327;SDS011;53133;52.862;6.602;2022-07-29T10:40:31;7.95;;;3.28;;
66327;SDS011;53133;52.862;6.602;2022-07-29T10:43:32;6.88;;;2.90;;
66327;SDS011;53133;52.862;6.602;2022-07-29T10:46:02;4.97;;;2.90;;
66327;SDS011;53133;52.862;6.602;2022-07-29T10:48:28;4.53;;;2.78;;
66327;SDS011;53133;52.862;6.602;2022-07-29T10:53:25;9.30;;;3.08;;
66327;SDS011;53133;52.862;6.602;2022-07-29T10:56:28;8.43;;;3.00;;
66327;SDS011;53133;52.862;6.602;2022-07-29T11:01:46;7.03;;;2.80;;
66327;SDS011;53133;52.862;6.602;2022-07-29T11:04:12;6.07;;;3.25;;
66327;SDS011;53133;52.862;6.602;2022-07-29T11:09:23;4.38;;;3.03;;
66327;SDS011;53133;52.862;6.602;2022-07-29T11:11:49;6.90;;;3.20;;
66327;SDS011;53133;52.862;6.602;2022-07-29T11:14:14;7.38;;;3.20;;
66327;SDS011;53133;52.862;6.602;2022-07-29T11:16:58;4.85;;;2.80;;
66327;SDS011;53133;52.862;6.602;2022-07-29T11:19:27;8.32;;;3.35;;
66327;SDS011;53133;52.862;6.602;2022-07-29T11:21:52;9.98;;;3.30;;
66327;SDS011;53133;52.862;6.602;2022-07-29T11:24:22;7.50;;;3.13;;
66327;SDS011;53133;52.862;6.602;2022-07-29T11:27:06;6.57;;;3.00;;
66327;SDS011;53133;52.862;6.602;2022-07-29T11:29:33;6.13;;;3.20;;
66327;SDS011;53133;52.862;6.602;2022-07-29T11:32:11;8.48;;;3.15;;
66327;SDS011;53133;52.862;6.602;2022-07-29T11:34:39;4.65;;;2.95;;
66327;SDS011;53133;52.862;6.602;2022-07-29T11:39:36;8.63;;;3.95;;
66327;SDS011;53133;52.862;6.602;2022-07-29T11:47:30;5.22;;;2.85;;
66327;SDS011;53133;52.862;6.602;2022-07-29T11:49:58;7.25;;;3.38;;
66327;SDS011;53133;52.862;6.602;2022-07-29T11:52:34;9.20;;;3.25;;
66327;SDS011;53133;52.862;6.602;2022-07-29T11:55:08;7.53;;;3.40;;
66327;SDS011;53133;52.862;6.602;2022-07-29T11:57:37;5.15;;;3.72;;
66327;SDS011;53133;52.862;6.602;2022-07-29T12:00:06;8.07;;;3.47;;
66327;SDS011;53133;52.862;6.602;2022-07-29T12:02:39;6.82;;;3.03;;
66327;SDS011;53133;52.862;6.602;2022-07-29T12:05:06;8.02;;;3.50;;
66327;SDS011;53133;52.862;6.602;2022-07-29T12:07:33;7.60;;;3.42;;
66327;SDS011;53133;52.862;6.602;2022-07-29T12:09:59;6.22;;;3.08;;
66327;SDS011;53133;52.862;6.602;2022-07-29T12:12:25;7.72;;;3.60;;
66327;SDS011;53133;52.862;6.602;2022-07-29T12:14:51;5.05;;;3.33;;
66327;SDS011;53133;52.862;6.602;2022-07-29T12:17:27;5.13;;;3.33;;
66327;SDS011;53133;52.862;6.602;2022-07-29T12:19:54;5.65;;;3.10;;
66327;SDS011;53133;52.862;6.602;2022-07-29T12:22:24;6.95;;;3.45;;
66327;SDS011;53133;52.862;6.602;2022-07-29T12:24:53;11.43;;;3.20;;
66327;SDS011;53133;52.862;6.602;2022-07-29T12:27:20;6.20;;;3.38;;
66327;SDS011;53133;52.862;6.602;2022-07-29T12:29:58;8.63;;;3.72;;
66327;SDS011;53133;52.862;6.602;2022-07-29T12:32:46;8.85;;;3.33;;
66327;SDS011;53133;52.862;6.602;2022-07-29T12:35:17;7.07;;;3.60;;
66327;SDS011;53133;52.862;6.602;2022-07-29T12:37:45;9.10;;;4.05;;
66327;SDS011;53133;52.862;6.602;2022-07-29T12:40:13;8.45;;;3.58;;
66327;SDS011;53133;52.862;6.602;2022-07-29T12:42:41;9.65;;;3.83;;
66327;SDS011;53133;52.862;6.602;2022-07-29T12:45:34;6.47;;;3.67;;
66327;SDS011;53133;52.862;6.602;2022-07-29T12:48:00;7.18;;;3.30;;
66327;SDS011;53133;52.862;6.602;2022-07-29T12:50:25;7.40;;;3.63;;
66327;SDS011;53133;52.862;6.602;2022-07-29T12:52:51;9.00;;;3.20;;
66327;SDS011;53133;52.862;6.602;2022-07-29T12:55:37;6.00;;;3.20;;
66327;SDS011;53133;52.862;6.602;2022-07-29T12:58:13;6.93;;;3.25;;
66327;SDS011;53133;52.862;6.602;2022-07-29T13:01:04;7.88;;;3.75;;
66327;SDS011;53133;52.862;6.602;2022-07-29T13:03:58;8.95;;;3.53;;
66327;SDS011;53133;52.862;6.602;2022-07-29T13:06:30;6.20;;;3.13;;
66327;SDS011;53133;52.862;6.602;2022-07-29T13:11:32;8.75;;;3.47;;
66327;SDS011;53133;52.862;6.602;2022-07-29T13:14:00;8.20;;;3.33;;
66327;SDS011;53133;52.862;6.602;2022-07-29T13:16:27;7.53;;;3.50;;
66327;SDS011;53133;52.862;6.602;2022-07-29T13:19:08;7.30;;;3.10;;
66327;SDS011;53133;52.862;6.602;2022-07-29T13:21:36;11.15;;;3.13;;
66327;SDS011;53133;52.862;6.602;2022-07-29T13:24:03;4.85;;;3.00;;
66327;SDS011;53133;52.862;6.602;2022-07-29T13:26:29;6.75;;;3.15;;
66327;SDS011;53133;52.862;6.602;2022-07-29T13:28:55;4.82;;;2.67;;
66327;SDS011;53133;52.862;6.602;2022-07-29T13:31:20;3.20;;;2.22;;
66327;SDS011;53133;52.862;6.602;2022-07-29T13:33:47;9.15;;;3.40;;
66327;SDS011;53133;52.862;6.602;2022-07-29T13:36:12;5.88;;;3.28;;
66327;SDS011;53133;52.862;6.602;2022-07-29T13:38:38;7.40;;;2.78;;
66327;SDS011;53133;52.862;6.602;2022-07-29T13:41:04;6.90;;;2.58;;
66327;SDS011;53133;52.862;6.602;2022-07-29T13:43:30;10.48;;;3.00;;
66327;SDS011;53133;52.862;6.602;2022-07-29T13:45:56;5.35;;;2.50;;
66327;SDS011;53133;52.862;6.602;2022-07-29T13:48:22;9.82;;;2.78;;
66327;SDS011;53133;52.862;6.602;2022-07-29T13:50:47;5.07;;;2.83;;
66327;SDS011;53133;52.862;6.602;2022-07-29T13:53:13;4.55;;;2.78;;
66327;SDS011;53133;52.862;6.602;2022-07-29T13:55:39;7.95;;;2.97;;
66327;SDS011;53133;52.862;6.602;2022-07-29T13:58:04;7.00;;;2.80;;
66327;SDS011;53133;52.862;6.602;2022-07-29T14:00:30;2.78;;;2.35;;
66327;SDS011;53133;52.862;6.602;2022-07-29T14:02:56;4.55;;;2.63;;
66327;SDS011;53133;52.862;6.602;2022-07-29T14:05:21;6.80;;;2.95;;
66327;SDS011;53133;52.862;6.602;2022-07-29T14:07:49;6.65;;;2.85;;
66327;SDS011;53133;52.862;6.602;2022-07-29T14:10:15;6.47;;;2.90;;
66327;SDS011;53133;52.862;6.602;2022-07-29T14:12:40;6.38;;;2.72;;
66327;SDS011;53133;52.862;6.602;2022-07-29T14:15:07;4.63;;;2.45;;
66327;SDS011;53133;52.862;6.602;2022-07-29T14:17:33;4.97;;;2.63;;
66327;SDS011;53133;52.862;6.602;2022-07-29T14:19:59;6.72;;;2.65;;
66327;SDS011;53133;52.862;6.602;2022-07-29T14:22:27;5.72;;;2.80;;
66327;SDS011;53133;52.862;6.602;2022-07-29T14:24:54;7.20;;;2.58;;
66327;SDS011;53133;52.862;6.602;2022-07-29T14:27:19;6.13;;;2.70;;
66327;SDS011;53133;52.862;6.602;2022-07-29T14:29:45;6.40;;;2.63;;
66327;SDS011;53133;52.862;6.602;2022-07-29T14:32:11;6.43;;;2.97;;
66327;SDS011;53133;52.862;6.602;2022-07-29T14:34:37;7.30;;;3.05;;
66327;SDS011;53133;52.862;6.602;2022-07-29T14:37:03;4.28;;;2.45;;
66327;SDS011;53133;52.862;6.602;2022-07-29T14:39:33;6.20;;;2.80;;
66327;SDS011;53133;52.862;6.602;2022-07-29T14:42:00;5.20;;;2.95;;
66327;SDS011;53133;52.862;6.602;2022-07-29T14:44:26;5.50;;;2.70;;
66327;SDS011;53133;52.862;6.602;2022-07-29T14:46:55;4.40;;;2.45;;
66327;SDS011;53133;52.862;6.602;2022-07-29T14:49:25;5.53;;;2.75;;
66327;SDS011;53133;52.862;6.602;2022-07-29T14:51:51;8.82;;;3.00;;
66327;SDS011;53133;52.862;6.602;2022-07-29T14:54:17;5.32;;;2.80;;
66327;SDS011;53133;52.862;6.602;2022-07-29T14:56:45;5.90;;;2.97;;
66327;SDS011;53133;52.862;6.602;2022-07-29T14:59:11;5.82;;;2.72;;
66327;SDS011;53133;52.862;6.602;2022-07-29T15:01:37;6.35;;;2.60;;
66327;SDS011;53133;52.862;6.602;2022-07-29T15:04:02;4.60;;;2.58;;
66327;SDS011;53133;52.862;6.602;2022-07-29T15:06:28;6.57;;;2.83;;
66327;SDS011;53133;52.862;6.602;2022-07-29T15:08:54;7.10;;;3.25;;
66327;SDS011;53133;52.862;6.602;2022-07-29T15:11:20;7.90;;;2.75;;
66327;SDS011;53133;52.862;6.602;2022-07-29T15:13:45;6.70;;;2.58;;
66327;SDS011;53133;52.862;6.602;2022-07-29T15:16:11;5.78;;;2.60;;
66327;SDS011;53133;52.862;6.602;2022-07-29T15:18:36;7.40;;;2.33;;
66327;SDS011;53133;52.862;6.602;2022-07-29T15:21:03;5.75;;;2.33;;
66327;SDS011;53133;52.862;6.602;2022-07-29T15:23:31;5.10;;;2.45;;
66327;SDS011;53133;52.862;6.602;2022-07-29T15:25:57;4.82;;;2.50;;
66327;SDS011;53133;52.862;6.602;2022-07-29T15:28:22;6.47;;;2.45;;
66327;SDS011;53133;52.862;6.602;2022-07-29T15:30:48;4.72;;;2.30;;
66327;SDS011;53133;52.862;6.602;2022-07-29T15:33:13;6.30;;;2.58;;
66327;SDS011;53133;52.862;6.602;2022-07-29T15:35:39;6.60;;;2.83;;
66327;SDS011;53133;52.862;6.602;2022-07-29T15:38:04;9.60;;;2.80;;
66327;SDS011;53133;52.862;6.602;2022-07-29T15:40:30;5.78;;;2.80;;
66327;SDS011;53133;52.862;6.602;2022-07-29T15:42:56;3.80;;;2.40;;